createdAt,value
2023-03-24T00:00:47.954Z,3.03
2023-03-24T00:03:17.167Z,3.17
2023-03-24T00:05:44.738Z,2.88
2023-03-24T00:08:11.218Z,3.25
2023-03-24T00:10:37.600Z,2.40
2023-03-24T00:13:04.101Z,2.88
2023-03-24T00:15:30.468Z,2.78
2023-03-24T00:17:58.201Z,2.80
2023-03-24T00:20:26.240Z,2.50
2023-03-24T00:22:56.946Z,2.80
2023-03-24T00:25:24.295Z,2.88
2023-03-24T00:27:51.138Z,2.53
2023-03-24T00:30:18.598Z,2.80
2023-03-24T00:32:46.168Z,2.60
2023-03-24T00:35:13.957Z,2.53
2023-03-24T00:37:41.722Z,2.78
2023-03-24T00:40:12.260Z,2.78
2023-03-24T00:42:46.110Z,3.22
2023-03-24T00:45:14.709Z,3.10
2023-03-24T00:47:41.452Z,3.05
2023-03-24T00:50:09.541Z,2.88
2023-03-24T00:52:35.966Z,2.78
2023-03-24T00:55:03.801Z,3.20
2023-03-24T00:57:34.606Z,3.13
2023-03-24T01:02:33.804Z,2.85
2023-03-24T01:05:02.103Z,2.85
2023-03-24T01:07:30.038Z,3.08
2023-03-24T01:09:59.833Z,2.88
2023-03-24T01:12:37.186Z,3.13
2023-03-24T01:15:05.656Z,2.90
2023-03-24T01:17:32.191Z,3.05
2023-03-24T01:19:58.494Z,2.75
2023-03-24T01:22:37.519Z,2.97
2023-03-24T01:25:04.878Z,3.10
2023-03-24T01:27:31.757Z,2.92
2023-03-24T01:29:59.243Z,3.17
2023-03-24T01:32:25.953Z,2.88
2023-03-24T01:34:52.294Z,2.97
2023-03-24T01:37:18.580Z,2.92
2023-03-24T01:39:44.882Z,2.95
2023-03-24T01:42:21.869Z,2.83
2023-03-24T01:44:49.316Z,2.88
2023-03-24T01:47:17.177Z,2.47
2023-03-24T01:49:47.276Z,3.17
2023-03-24T01:52:24.068Z,2.95
2023-03-24T01:54:56.194Z,2.78
2023-03-24T01:57:42.982Z,3.08
2023-03-24T02:00:11.537Z,3.17
2023-03-24T02:02:38.791Z,3.47
2023-03-24T02:05:08.952Z,2.80
2023-03-24T02:07:35.231Z,3.20
2023-03-24T02:10:05.854Z,3.20
2023-03-24T02:12:32.726Z,3.38
2023-03-24T02:15:02.449Z,2.58
2023-03-24T02:17:33.466Z,3.08
2023-03-24T02:20:14.986Z,3.20
2023-03-24T02:23:09.993Z,3.38
2023-03-24T02:25:39.296Z,3.13
2023-03-24T02:28:10.692Z,3.00
2023-03-24T02:30:55.976Z,3.42
2023-03-24T02:33:22.859Z,3.83
2023-03-24T02:36:07.313Z,4.97
2023-03-24T02:38:53.464Z,3.75
2023-03-24T02:41:36.239Z,2.60
2023-03-24T02:44:09.600Z,2.25
2023-03-24T02:46:36.033Z,2.10
2023-03-24T02:49:21.410Z,2.72
2023-03-24T02:51:50.851Z,2.80
2023-03-24T02:54:20.420Z,2.20
2023-03-24T02:56:56.044Z,2.55
2023-03-24T02:59:25.835Z,2.08
2023-03-24T03:01:58.751Z,1.95
2023-03-24T03:04:29.520Z,2.10
2023-03-24T03:09:23.094Z,1.70
2023-03-24T03:11:51.445Z,1.73
2023-03-24T03:14:19.841Z,1.25
2023-03-24T03:16:54.500Z,1.65
2023-03-24T03:19:23.254Z,1.35
2023-03-24T03:21:50.589Z,1.38
2023-03-24T03:24:27.055Z,1.30
2023-03-24T03:26:57.489Z,1.40
2023-03-24T03:29:25.647Z,1.85
2023-03-24T03:31:59.680Z,1.20
2023-03-24T03:34:31.951Z,1.60
2023-03-24T03:37:03.529Z,1.10
2023-03-24T03:39:32.064Z,1.50
2023-03-24T03:41:58.560Z,1.13
2023-03-24T03:44:25.150Z,1.73
2023-03-24T03:46:51.832Z,1.98
2023-03-24T03:49:18.138Z,1.05
2023-03-24T03:51:44.461Z,1.58
2023-03-24T03:54:12.600Z,1.40
2023-03-24T03:56:39.667Z,1.45
2023-03-24T03:59:06.554Z,1.52
2023-03-24T04:01:37.036Z,1.58
2023-03-24T04:04:26.110Z,1.30
2023-03-24T04:06:57.457Z,1.55
2023-03-24T04:09:27.371Z,1.60
2023-03-24T04:12:02.819Z,1.90
2023-03-24T04:14:29.130Z,2.13
2023-03-24T04:17:01.500Z,1.83
2023-03-24T04:19:33.290Z,2.08
2023-03-24T04:22:18.636Z,2.00
2023-03-24T04:24:54.895Z,2.00
2023-03-24T04:27:28.323Z,1.50
2023-03-24T04:30:00.656Z,1.67
2023-03-24T04:32:37.197Z,2.30
2023-03-24T04:35:10.154Z,2.15
2023-03-24T04:37:40.116Z,2.25
2023-03-24T04:40:08.518Z,2.30
2023-03-24T04:42:36.974Z,2.50
2023-03-24T04:45:04.840Z,2.53
2023-03-24T04:47:33.028Z,2.78
2023-03-24T04:50:04.571Z,2.00
2023-03-24T04:52:30.936Z,3.55
2023-03-24T04:54:57.440Z,2.15
2023-03-24T04:57:23.791Z,3.28
2023-03-24T04:59:50.158Z,2.25
2023-03-24T05:02:16.573Z,1.95
2023-03-24T05:04:42.920Z,1.83
2023-03-24T05:07:09.233Z,2.05
2023-03-24T05:09:35.594Z,1.80
2023-03-24T05:12:02.264Z,2.03
2023-03-24T05:14:28.678Z,2.22
2023-03-24T05:16:55.033Z,2.13
2023-03-24T05:19:21.384Z,2.15
2023-03-24T05:21:47.833Z,1.70
2023-03-24T05:24:14.599Z,2.45
2023-03-24T05:26:41.163Z,2.20
2023-03-24T05:29:07.696Z,2.22
2023-03-24T05:31:34.010Z,1.95
2023-03-24T05:34:00.456Z,2.38
2023-03-24T05:36:26.834Z,1.92
2023-03-24T05:38:53.298Z,2.13
2023-03-24T05:41:19.573Z,2.75
2023-03-24T05:43:45.881Z,2.70
2023-03-24T05:46:12.301Z,3.70
2023-03-24T05:48:38.683Z,2.08
2023-03-24T05:51:05.171Z,2.30
2023-03-24T05:53:31.462Z,3.03
2023-03-24T05:55:58.754Z,2.97
2023-03-24T05:58:25.231Z,2.35
2023-03-24T06:00:51.836Z,2.60
2023-03-24T06:03:18.387Z,2.90
2023-03-24T06:05:46.096Z,2.17
2023-03-24T06:08:13.067Z,2.25
2023-03-24T06:10:40.701Z,1.88
2023-03-24T06:13:08.940Z,1.70
2023-03-24T06:15:35.561Z,2.45
2023-03-24T06:18:02.033Z,3.13
2023-03-24T06:20:29.236Z,2.65
2023-03-24T06:22:59.094Z,2.88
2023-03-24T06:25:27.180Z,2.58
2023-03-24T06:27:53.505Z,2.60
2023-03-24T06:30:20.084Z,2.45
2023-03-24T06:32:47.039Z,2.55
2023-03-24T06:35:14.768Z,2.42
2023-03-24T06:37:41.350Z,2.10
2023-03-24T06:40:10.905Z,2.20
2023-03-24T06:42:37.682Z,3.08
2023-03-24T06:45:04.836Z,2.58
2023-03-24T06:47:31.193Z,2.88
2023-03-24T06:49:57.470Z,2.28
2023-03-24T06:52:24.833Z,2.50
2023-03-24T06:54:51.183Z,3.08
2023-03-24T06:57:17.947Z,2.60
2023-03-24T06:59:44.777Z,3.10
2023-03-24T07:02:12.618Z,3.53
2023-03-24T07:04:39.137Z,2.30
2023-03-24T07:07:38.118Z,2.22
2023-03-24T07:09:52.040Z,2.63
2023-03-24T07:12:18.478Z,2.40
2023-03-24T07:14:44.806Z,2.65
2023-03-24T07:17:11.224Z,3.22
2023-03-24T07:19:37.611Z,2.20
2023-03-24T07:22:04.260Z,2.13
2023-03-24T07:24:31.832Z,2.10
2023-03-24T07:26:58.338Z,3.17
2023-03-24T07:29:24.784Z,2.60
2023-03-24T07:31:51.108Z,2.60
2023-03-24T07:34:17.507Z,2.22
2023-03-24T07:36:43.789Z,3.40
2023-03-24T07:39:10.768Z,2.67
2023-03-24T07:41:37.071Z,2.42
2023-03-24T07:44:03.472Z,3.78
2023-03-24T07:46:29.791Z,2.50
2023-03-24T07:48:59.460Z,3.08
2023-03-24T07:51:29.663Z,2.28
2023-03-24T07:53:56.378Z,2.20
2023-03-24T07:56:22.655Z,3.38
2023-03-24T07:58:48.986Z,1.80
2023-03-24T08:01:15.415Z,2.22
2023-03-24T08:03:42.162Z,2.47
2023-03-24T08:06:08.733Z,2.67
2023-03-24T08:08:36.488Z,2.17
2023-03-24T08:11:03.487Z,2.33
2023-03-24T08:13:29.865Z,2.45
2023-03-24T08:15:56.213Z,2.58
2023-03-24T08:18:23.278Z,2.10
2023-03-24T08:20:50.116Z,2.20
2023-03-24T08:23:17.984Z,2.60
2023-03-24T08:25:44.291Z,2.28
2023-03-24T08:28:10.813Z,2.75
2023-03-24T08:30:37.403Z,2.45
2023-03-24T08:33:04.516Z,2.05
2023-03-24T08:35:32.372Z,2.45
2023-03-24T08:38:06.161Z,2.33
2023-03-24T08:40:34.600Z,1.90
2023-03-24T08:43:03.214Z,2.05
2023-03-24T08:45:30.707Z,2.20
2023-03-24T08:47:58.664Z,2.53
2023-03-24T08:50:27.992Z,3.97
2023-03-24T08:52:56.639Z,2.63
2023-03-24T08:55:23.526Z,2.85
2023-03-24T08:57:49.945Z,2.75
2023-03-24T09:00:18.382Z,2.05
2023-03-24T09:02:52.483Z,2.22
2023-03-24T09:05:24.569Z,2.13
2023-03-24T09:07:56.037Z,2.17
2023-03-24T09:10:22.575Z,2.38
2023-03-24T09:12:49.580Z,2.10
2023-03-24T09:15:15.915Z,2.13
2023-03-24T09:17:42.264Z,2.13
2023-03-24T09:20:11.828Z,2.70
2023-03-24T09:22:38.987Z,1.83
2023-03-24T09:25:05.654Z,2.20
2023-03-24T09:27:33.109Z,2.17
2023-03-24T09:29:59.533Z,1.95
2023-03-24T09:32:26.053Z,2.20
2023-03-24T09:34:52.435Z,3.00
2023-03-24T09:37:18.865Z,2.83
2023-03-24T09:39:45.311Z,2.35
2023-03-24T09:42:20.157Z,2.00
2023-03-24T09:44:50.140Z,2.03
2023-03-24T09:47:26.089Z,2.20
2023-03-24T09:49:54.083Z,2.22
2023-03-24T09:52:23.363Z,2.15
2023-03-24T09:54:59.099Z,2.15
2023-03-24T09:57:25.420Z,2.13
2023-03-24T09:59:51.817Z,1.90
2023-03-24T10:02:19.109Z,1.90
2023-03-24T10:04:45.896Z,1.83
2023-03-24T10:07:31.937Z,2.00
2023-03-24T10:09:59.450Z,2.10
2023-03-24T10:12:25.808Z,1.70
2023-03-24T10:14:58.636Z,1.70
2023-03-24T10:17:31.478Z,1.55
2023-03-24T10:20:07.564Z,2.30
2023-03-24T10:22:43.771Z,1.73
2023-03-24T10:25:28.903Z,1.98
2023-03-24T10:27:58.542Z,2.13
2023-03-24T10:30:37.138Z,2.33
2023-03-24T10:33:04.063Z,2.58
2023-03-24T10:35:33.631Z,2.47
2023-03-24T10:38:01.167Z,1.60
2023-03-24T10:40:33.178Z,2.60
2023-03-24T10:43:06.708Z,1.83
2023-03-24T10:45:36.657Z,2.30
2023-03-24T10:48:04.279Z,2.10
2023-03-24T10:50:31.804Z,2.30
2023-03-24T10:52:58.184Z,1.80
2023-03-24T10:55:31.304Z,1.88
2023-03-24T10:57:59.114Z,1.90
2023-03-24T11:00:29.855Z,2.10
2023-03-24T11:03:01.024Z,2.05
2023-03-24T11:05:30.546Z,1.80
2023-03-24T11:07:59.801Z,2.33
2023-03-24T11:10:26.787Z,1.90
2023-03-24T11:12:53.043Z,2.08
2023-03-24T11:15:21.958Z,2.17
2023-03-24T11:17:54.033Z,2.05
2023-03-24T11:20:25.078Z,1.67
2023-03-24T11:22:59.288Z,1.77
2023-03-24T11:25:26.693Z,2.35
2023-03-24T11:27:57.714Z,1.73
2023-03-24T11:30:24.115Z,1.67
2023-03-24T11:32:50.633Z,1.80
2023-03-24T11:35:18.360Z,1.90
2023-03-24T11:37:45.835Z,1.67
2023-03-24T11:40:12.150Z,1.50
2023-03-24T11:42:44.776Z,1.60
2023-03-24T11:45:29.856Z,1.40
2023-03-24T11:47:57.563Z,1.48
2023-03-24T11:50:28.911Z,1.88
2023-03-24T11:53:00.110Z,1.60
2023-03-24T11:55:35.523Z,1.42
2023-03-24T11:58:04.936Z,1.90
2023-03-24T12:00:48.285Z,1.60
2023-03-24T12:03:17.753Z,1.40
2023-03-24T12:06:04.619Z,2.10
2023-03-24T12:08:51.254Z,1.50
2023-03-24T12:11:22.591Z,1.60
2023-03-24T12:13:49.756Z,1.65
2023-03-24T12:16:22.105Z,1.70
2023-03-24T12:18:48.484Z,1.90
2023-03-24T12:21:19.472Z,2.20
2023-03-24T12:23:59.665Z,1.45
2023-03-24T12:26:30.705Z,1.40
2023-03-24T12:28:58.675Z,1.58
2023-03-24T12:31:39.534Z,1.63
2023-03-24T12:34:06.029Z,1.30
2023-03-24T12:36:44.522Z,1.60
2023-03-24T12:39:14.058Z,1.35
2023-03-24T12:41:40.526Z,1.38
2023-03-24T12:44:39.052Z,1.40
2023-03-24T12:47:11.990Z,1.25
2023-03-24T12:49:41.132Z,1.20
2023-03-24T12:52:14.990Z,1.70
2023-03-24T12:54:50.616Z,1.40
2023-03-24T12:57:18.286Z,1.15
2023-03-24T12:59:51.630Z,1.45
2023-03-24T13:02:31.548Z,1.10
2023-03-24T13:05:05.030Z,1.27
2023-03-24T13:07:44.095Z,1.58
2023-03-24T13:10:13.756Z,1.55
2023-03-24T13:12:49.178Z,1.83
2023-03-24T13:15:18.100Z,1.42
2023-03-24T13:17:50.962Z,1.67
2023-03-24T13:20:24.088Z,1.60
2023-03-24T13:22:51.485Z,1.50
2023-03-24T13:25:23.099Z,1.60
2023-03-24T13:27:50.791Z,1.92
2023-03-24T13:30:26.642Z,2.30
2023-03-24T13:32:55.190Z,1.35
2023-03-24T13:35:30.965Z,1.83
2023-03-24T13:38:01.917Z,1.63
2023-03-24T13:40:29.862Z,1.75
2023-03-24T13:43:00.992Z,1.42
2023-03-24T13:45:30.159Z,1.73
2023-03-24T13:48:05.608Z,1.48
2023-03-24T13:50:38.451Z,2.88
2023-03-24T13:53:14.866Z,1.52
2023-03-24T13:55:46.834Z,1.38
2023-03-24T13:58:19.199Z,1.60
2023-03-24T14:01:18.195Z,1.20
2023-03-24T14:03:45.578Z,1.30
2023-03-24T14:06:16.436Z,1.30
2023-03-24T14:08:52.185Z,1.90
2023-03-24T14:11:30.944Z,1.25
2023-03-24T14:14:05.885Z,1.45
2023-03-24T14:16:43.672Z,0.90
2023-03-24T14:19:39.065Z,1.30
2023-03-24T14:22:11.407Z,0.80
2023-03-24T14:24:43.539Z,0.95
2023-03-24T14:27:23.694Z,0.82
2023-03-24T14:29:55.749Z,1.05
2023-03-24T14:32:25.423Z,1.02
2023-03-24T14:34:54.417Z,1.00
2023-03-24T14:37:22.139Z,0.85
2023-03-24T14:39:49.099Z,0.70
2023-03-24T14:42:41.679Z,0.90
2023-03-24T14:45:26.778Z,0.88
2023-03-24T14:47:59.956Z,0.73
2023-03-24T14:50:27.101Z,0.80
2023-03-24T14:52:55.165Z,1.00
2023-03-24T14:55:22.033Z,1.60
2023-03-24T14:57:53.045Z,1.30
2023-03-24T15:00:19.367Z,0.80
2023-03-24T15:02:47.984Z,1.10
2023-03-24T15:05:17.481Z,1.98
2023-03-24T15:07:44.725Z,2.05
2023-03-24T15:10:16.042Z,1.20
2023-03-24T15:12:49.062Z,1.20
2023-03-24T15:15:22.722Z,1.20
2023-03-24T15:17:50.230Z,1.50
2023-03-24T15:20:21.302Z,2.90
2023-03-24T15:22:47.765Z,1.40
2023-03-24T15:25:15.351Z,1.67
2023-03-24T15:27:48.590Z,2.22
2023-03-24T15:30:16.061Z,1.70
2023-03-24T15:32:46.235Z,1.10
2023-03-24T15:35:14.491Z,2.60
2023-03-24T15:37:42.936Z,1.60
2023-03-24T15:40:30.835Z,1.20
2023-03-24T15:42:58.600Z,1.20
2023-03-24T15:45:30.941Z,1.70
2023-03-24T15:47:57.886Z,1.73
2023-03-24T15:50:29.079Z,1.67
2023-03-24T15:52:58.928Z,1.58
2023-03-24T15:55:34.914Z,1.40
2023-03-24T15:58:02.651Z,1.48
2023-03-24T16:00:31.725Z,1.63
2023-03-24T16:03:01.009Z,1.50
2023-03-24T16:05:28.932Z,1.60
2023-03-24T16:07:58.368Z,1.55
2023-03-24T16:10:40.249Z,1.50
2023-03-24T16:13:20.443Z,1.70
2023-03-24T16:15:58.159Z,1.20
2023-03-24T16:18:27.378Z,1.40
2023-03-24T16:20:53.956Z,1.17
2023-03-24T16:23:20.514Z,2.40
2023-03-24T16:25:47.071Z,1.35
2023-03-24T16:28:16.090Z,1.45
2023-03-24T16:30:43.057Z,1.58
2023-03-24T16:33:09.789Z,1.73
2023-03-24T16:35:36.592Z,1.75
2023-03-24T16:38:03.048Z,1.23
2023-03-24T16:40:37.760Z,1.65
2023-03-24T16:43:04.738Z,1.38
2023-03-24T16:45:31.766Z,1.67
2023-03-24T16:47:58.796Z,1.45
2023-03-24T16:50:34.156Z,1.73
2023-03-24T16:53:00.755Z,1.40
2023-03-24T16:55:27.344Z,1.60
2023-03-24T16:57:54.174Z,1.38
2023-03-24T17:00:20.716Z,1.15
2023-03-24T17:02:49.040Z,1.60
2023-03-24T17:05:20.302Z,1.40
2023-03-24T17:07:46.870Z,1.85
2023-03-24T17:10:13.220Z,1.98
2023-03-24T17:12:39.717Z,1.88
2023-03-24T17:15:06.749Z,2.30
2023-03-24T17:17:33.392Z,1.73
2023-03-24T17:19:59.712Z,1.52
2023-03-24T17:22:26.025Z,1.65
2023-03-24T17:24:57.814Z,2.25
2023-03-24T17:27:24.470Z,1.88
2023-03-24T17:29:50.776Z,1.63
2023-03-24T17:32:17.382Z,1.90
2023-03-24T17:34:45.559Z,1.52
2023-03-24T17:37:11.894Z,1.65
2023-03-24T17:39:39.428Z,1.77
2023-03-24T17:42:05.884Z,2.05
2023-03-24T17:44:32.766Z,1.73
2023-03-24T17:46:59.162Z,1.90
2023-03-24T17:49:25.588Z,3.20
2023-03-24T17:51:51.862Z,2.58
2023-03-24T17:54:20.431Z,2.63
2023-03-24T17:56:46.885Z,1.85
2023-03-24T17:59:13.566Z,2.38
2023-03-24T18:01:40.334Z,1.90
2023-03-24T18:04:07.017Z,1.85
2023-03-24T18:06:33.715Z,2.03
2023-03-24T18:09:00.008Z,1.92
2023-03-24T18:11:26.609Z,1.70
2023-03-24T18:13:56.076Z,1.35
2023-03-24T18:16:23.046Z,1.52
2023-03-24T18:18:58.431Z,1.25
2023-03-24T18:21:28.334Z,1.85
2023-03-24T18:23:54.745Z,1.77
2023-03-24T18:26:23.992Z,1.20
2023-03-24T18:28:53.083Z,1.70
2023-03-24T18:31:26.386Z,1.90
2023-03-24T18:33:55.953Z,1.65
2023-03-24T18:36:26.306Z,1.70
2023-03-24T18:39:04.591Z,2.63
2023-03-24T18:42:53.207Z,1.88
2023-03-24T18:45:10.475Z,2.60
2023-03-24T18:47:36.944Z,2.30
2023-03-24T18:50:04.917Z,1.73
2023-03-24T18:52:38.126Z,1.65
2023-03-24T18:55:04.876Z,1.75
2023-03-24T18:57:31.356Z,1.33
2023-03-24T18:59:57.728Z,2.65
2023-03-24T19:02:24.074Z,2.38
2023-03-24T19:04:50.528Z,1.88
2023-03-24T19:07:24.310Z,1.48
2023-03-24T19:09:51.177Z,1.38
2023-03-24T19:12:18.098Z,1.42
2023-03-24T19:14:44.523Z,1.52
2023-03-24T19:17:10.929Z,1.60
2023-03-24T19:19:37.602Z,1.15
2023-03-24T19:22:05.930Z,1.60
2023-03-24T19:24:32.345Z,1.52
2023-03-24T19:26:59.484Z,1.30
2023-03-24T19:29:25.981Z,1.50
2023-03-24T19:31:52.442Z,1.50
2023-03-24T19:34:18.892Z,1.30
2023-03-24T19:36:47.550Z,0.80
2023-03-24T19:39:17.381Z,1.02
2023-03-24T19:41:43.744Z,0.90
2023-03-24T19:44:10.242Z,1.00
2023-03-24T19:46:36.633Z,1.55
2023-03-24T19:49:03.015Z,1.02
2023-03-24T19:51:29.451Z,1.52
2023-03-24T19:53:55.979Z,1.23
2023-03-24T19:56:22.359Z,1.20
2023-03-24T19:58:48.861Z,1.42
2023-03-24T20:01:15.245Z,1.30
2023-03-24T20:03:41.775Z,0.90
2023-03-24T20:06:09.190Z,0.88
2023-03-24T20:08:39.815Z,0.82
2023-03-24T20:11:06.814Z,1.17
2023-03-24T20:13:33.131Z,1.08
2023-03-24T20:15:59.425Z,2.03
2023-03-24T20:18:26.075Z,1.63
2023-03-24T20:20:54.422Z,2.00
2023-03-24T20:23:22.272Z,2.00
2023-03-24T20:25:49.124Z,1.38
2023-03-24T20:28:15.660Z,1.58
2023-03-24T20:30:45.000Z,1.10
2023-03-24T20:33:12.168Z,1.08
2023-03-24T20:35:39.783Z,1.63
2023-03-24T20:38:06.216Z,1.65
2023-03-24T20:40:32.586Z,1.77
2023-03-24T20:42:58.993Z,2.00
2023-03-24T20:45:25.638Z,1.88
2023-03-24T20:47:52.164Z,2.28
2023-03-24T20:50:18.588Z,2.20
2023-03-24T20:52:45.006Z,2.15
2023-03-24T20:55:11.539Z,2.15
2023-03-24T20:57:38.076Z,2.00
2023-03-24T21:00:13.153Z,2.30
2023-03-24T21:02:43.184Z,2.25
2023-03-24T21:05:10.343Z,1.88
2023-03-24T21:07:38.410Z,1.90
2023-03-24T21:10:06.397Z,2.13
2023-03-24T21:12:33.317Z,1.83
2023-03-24T21:14:59.911Z,2.00
2023-03-24T21:17:31.930Z,1.52
2023-03-24T21:20:06.488Z,1.45
2023-03-24T21:22:47.351Z,1.92
2023-03-24T21:27:40.598Z,1.50
2023-03-24T21:30:08.243Z,1.52
2023-03-24T21:32:37.993Z,1.75
2023-03-24T21:35:04.698Z,1.17
2023-03-24T21:37:31.581Z,1.00
2023-03-24T21:39:57.941Z,1.42
2023-03-24T21:42:24.224Z,1.13
2023-03-24T21:44:50.689Z,1.20
2023-03-24T21:47:20.418Z,1.20
2023-03-24T21:49:48.852Z,1.40
2023-03-24T21:52:18.997Z,1.17
2023-03-24T21:54:45.337Z,1.48
2023-03-24T21:57:12.982Z,0.88
2023-03-24T21:59:39.979Z,0.93
2023-03-24T22:02:14.237Z,1.33
2023-03-24T22:04:41.693Z,1.15
2023-03-24T22:07:08.603Z,1.42
2023-03-24T22:09:35.539Z,1.75
2023-03-24T22:12:01.887Z,1.65
2023-03-24T22:14:28.331Z,1.77
2023-03-24T22:16:54.660Z,1.40
2023-03-24T22:19:21.088Z,1.65
2023-03-24T22:21:51.960Z,1.58
2023-03-24T22:26:44.435Z,1.70
2023-03-24T22:29:11.086Z,2.03
2023-03-24T22:31:42.195Z,2.08
2023-03-24T22:34:08.753Z,2.15
2023-03-24T22:36:35.272Z,1.92
2023-03-24T22:39:01.524Z,2.15
2023-03-24T22:41:27.950Z,2.40
2023-03-24T22:43:54.376Z,2.40
2023-03-24T22:46:22.210Z,2.10
2023-03-24T22:48:48.601Z,2.25
2023-03-24T22:51:19.102Z,2.15
2023-03-24T22:53:46.035Z,2.33
2023-03-24T22:56:12.479Z,2.92
2023-03-24T22:58:40.112Z,2.22
2023-03-24T23:01:06.726Z,2.13
2023-03-24T23:03:33.611Z,2.58
2023-03-24T23:06:03.401Z,2.15
2023-03-24T23:08:30.594Z,2.28
2023-03-24T23:10:57.670Z,2.22
2023-03-24T23:13:25.486Z,1.98
2023-03-24T23:15:52.352Z,1.95
2023-03-24T23:18:19.467Z,1.90
2023-03-24T23:20:46.212Z,1.73
2023-03-24T23:23:13.352Z,1.30
2023-03-24T23:25:40.659Z,1.65
2023-03-24T23:28:06.945Z,1.60
2023-03-24T23:30:33.200Z,1.90
2023-03-24T23:32:59.747Z,1.33
2023-03-24T23:35:26.508Z,1.45
2023-03-24T23:37:52.835Z,1.52
2023-03-24T23:40:19.273Z,1.67
2023-03-24T23:42:46.897Z,1.40
2023-03-24T23:45:14.705Z,1.67
2023-03-24T23:47:42.210Z,1.17
2023-03-24T23:50:09.117Z,1.25
2023-03-24T23:52:35.737Z,1.63
2023-03-24T23:55:02.300Z,1.92
2023-03-24T23:57:28.724Z,1.40
2023-03-24T23:59:55.063Z,1.20
